sensor_id;sensor_type;location;lat;lon;timestamp;pressure;altitude;pressure_sealevel;temperature;humidity
54900;BME280;40801;41.924;25.562;2023-08-07T00:00:03;98579.59;;;24.18;50.64
54900;BME280;40801;41.924;25.562;2023-08-07T00:02:29;98584.41;;;24.10;49.59
54900;BME280;40801;41.924;25.562;2023-08-07T00:04:54;98580.84;;;24.13;49.73
54900;BME280;40801;41.924;25.562;2023-08-07T00:07:20;98585.63;;;24.09;49.31
54900;BME280;40801;41.924;25.562;2023-08-07T00:09:45;98587.53;;;24.12;49.38
54900;BME280;40801;41.924;25.562;2023-08-07T00:12:11;98584.88;;;24.05;48.88
54900;BME280;40801;41.924;25.562;2023-08-07T00:14:36;98595.56;;;23.99;49.34
54900;BME280;40801;41.924;25.562;2023-08-07T00:17:01;98592.75;;;24.06;49.19
54900;BME280;40801;41.924;25.562;2023-08-07T00:19:27;98604.94;;;24.05;48.48
54900;BME280;40801;41.924;25.562;2023-08-07T00:21:53;98601.91;;;23.96;48.08
54900;BME280;40801;41.924;25.562;2023-08-07T00:24:18;98596.06;;;23.91;47.87
54900;BME280;40801;41.924;25.562;2023-08-07T00:26:44;98599.56;;;23.95;47.06
54900;BME280;40801;41.924;25.562;2023-08-07T00:29:09;98601.16;;;23.92;46.76
54900;BME280;40801;41.924;25.562;2023-08-07T00:31:34;98612.34;;;23.82;46.93
54900;BME280;40801;41.924;25.562;2023-08-07T00:34:00;98606.00;;;23.85;46.95
54900;BME280;40801;41.924;25.562;2023-08-07T00:36:25;98604.16;;;23.74;46.70
54900;BME280;40801;41.924;25.562;2023-08-07T00:38:53;98614.25;;;23.85;46.51
54900;BME280;40801;41.924;25.562;2023-08-07T00:41:20;98619.13;;;23.70;46.52
54900;BME280;40801;41.924;25.562;2023-08-07T00:43:45;98611.75;;;23.63;46.49
54900;BME280;40801;41.924;25.562;2023-08-07T00:46:11;98618.00;;;23.67;46.40
54900;BME280;40801;41.924;25.562;2023-08-07T00:48:36;98619.22;;;23.63;46.38
54900;BME280;40801;41.924;25.562;2023-08-07T00:51:02;98626.75;;;23.55;46.43
54900;BME280;40801;41.924;25.562;2023-08-07T00:53:28;98624.78;;;23.59;46.18
54900;BME280;40801;41.924;25.562;2023-08-07T00:55:54;98624.88;;;23.48;46.72
54900;BME280;40801;41.924;25.562;2023-08-07T00:58:19;98624.88;;;23.48;46.36
54900;BME280;40801;41.924;25.562;2023-08-07T01:00:45;98639.03;;;23.47;46.62
54900;BME280;40801;41.924;25.562;2023-08-07T01:03:12;98633.09;;;23.52;46.94
54900;BME280;40801;41.924;25.562;2023-08-07T01:05:39;98646.16;;;23.44;46.32
54900;BME280;40801;41.924;25.562;2023-08-07T01:08:05;98649.31;;;23.39;46.55
54900;BME280;40801;41.924;25.562;2023-08-07T01:10:38;98654.03;;;23.39;46.67
54900;BME280;40801;41.924;25.562;2023-08-07T01:13:13;98642.66;;;23.37;46.60
54900;BME280;40801;41.924;25.562;2023-08-07T01:15:40;98645.16;;;23.24;46.58
54900;BME280;40801;41.924;25.562;2023-08-07T01:18:07;98659.63;;;23.32;46.42
54900;BME280;40801;41.924;25.562;2023-08-07T01:20:32;98659.25;;;23.30;46.13
54900;BME280;40801;41.924;25.562;2023-08-07T01:22:58;98656.50;;;23.30;46.10
54900;BME280;40801;41.924;25.562;2023-08-07T01:25:23;98658.09;;;23.27;46.50
54900;BME280;40801;41.924;25.562;2023-08-07T01:27:55;98653.50;;;23.13;46.19
54900;BME280;40801;41.924;25.562;2023-08-07T01:30:44;98668.00;;;23.17;46.29
54900;BME280;40801;41.924;25.562;2023-08-07T01:33:24;98670.75;;;23.17;46.04
54900;BME280;40801;41.924;25.562;2023-08-07T01:35:53;98672.78;;;23.13;46.24
54900;BME280;40801;41.924;25.562;2023-08-07T01:38:21;98670.03;;;23.10;46.34
54900;BME280;40801;41.924;25.562;2023-08-07T01:40:49;98673.22;;;23.05;46.69
54900;BME280;40801;41.924;25.562;2023-08-07T01:43:16;98667.94;;;23.25;46.30
54900;BME280;40801;41.924;25.562;2023-08-07T01:45:41;98675.84;;;23.19;46.27
54900;BME280;40801;41.924;25.562;2023-08-07T01:48:07;98679.81;;;23.18;46.42
54900;BME280;40801;41.924;25.562;2023-08-07T01:50:32;98683.63;;;23.28;46.35
54900;BME280;40801;41.924;25.562;2023-08-07T01:52:58;98674.63;;;23.24;46.32
54900;BME280;40801;41.924;25.562;2023-08-07T01:55:24;98669.63;;;23.15;46.72
54900;BME280;40801;41.924;25.562;2023-08-07T01:57:50;98681.69;;;23.25;47.03
54900;BME280;40801;41.924;25.562;2023-08-07T02:00:16;98679.44;;;23.16;46.84
54900;BME280;40801;41.924;25.562;2023-08-07T02:02:41;98687.28;;;23.17;46.98
54900;BME280;40801;41.924;25.562;2023-08-07T02:05:07;98684.53;;;23.17;47.02
54900;BME280;40801;41.924;25.562;2023-08-07T02:07:32;98692.06;;;23.06;47.13
54900;BME280;40801;41.924;25.562;2023-08-07T02:09:58;98687.69;;;23.12;47.50
54900;BME280;40801;41.924;25.562;2023-08-07T02:12:23;98694.56;;;22.90;47.91
54900;BME280;40801;41.924;25.562;2023-08-07T02:14:50;98700.84;;;22.91;47.81
54900;BME280;40801;41.924;25.562;2023-08-07T02:17:16;98702.41;;;22.92;48.17
54900;BME280;40801;41.924;25.562;2023-08-07T02:19:41;98700.84;;;22.83;48.44
54900;BME280;40801;41.924;25.562;2023-08-07T02:22:06;98696.50;;;22.93;48.35
54900;BME280;40801;41.924;25.562;2023-08-07T02:24:32;98708.69;;;22.92;48.48
54900;BME280;40801;41.924;25.562;2023-08-07T02:26:57;98712.28;;;22.75;48.76
54900;BME280;40801;41.924;25.562;2023-08-07T02:29:23;98712.28;;;22.75;49.03
54900;BME280;40801;41.924;25.562;2023-08-07T02:31:48;98708.34;;;22.76;49.11
54900;BME280;40801;41.924;25.562;2023-08-07T02:34:13;98710.69;;;22.84;49.24
54900;BME280;40801;41.924;25.562;2023-08-07T02:36:39;98717.75;;;22.78;49.31
54900;BME280;40801;41.924;25.562;2023-08-07T02:39:04;98704.44;;;22.73;49.48
54900;BME280;40801;41.924;25.562;2023-08-07T02:41:30;98720.59;;;22.64;49.70
54900;BME280;40801;41.924;25.562;2023-08-07T02:43:56;98719.00;;;22.70;49.61
54900;BME280;40801;41.924;25.562;2023-08-07T02:46:21;98717.06;;;22.67;49.56
54900;BME280;40801;41.924;25.562;2023-08-07T02:48:47;98736.31;;;22.64;49.82
54900;BME280;40801;41.924;25.562;2023-08-07T02:51:12;98738.69;;;22.62;50.05
54900;BME280;40801;41.924;25.562;2023-08-07T02:53:38;98743.78;;;22.63;49.85
54900;BME280;40801;41.924;25.562;2023-08-07T02:56:03;98750.91;;;22.46;50.62
54900;BME280;40801;41.924;25.562;2023-08-07T02:58:28;98749.72;;;22.47;50.60
54900;BME280;40801;41.924;25.562;2023-08-07T03:00:54;98758.00;;;22.40;50.93
54900;BME280;40801;41.924;25.562;2023-08-07T03:03:20;98779.19;;;22.47;50.60
54900;BME280;40801;41.924;25.562;2023-08-07T03:05:49;98773.31;;;22.41;51.24
54900;BME280;40801;41.924;25.562;2023-08-07T03:08:15;98780.41;;;22.35;50.85
54900;BME280;40801;41.924;25.562;2023-08-07T03:10:40;98779.63;;;22.31;50.99
54900;BME280;40801;41.924;25.562;2023-08-07T03:13:06;98777.69;;;22.24;51.20
54900;BME280;40801;41.924;25.562;2023-08-07T03:15:31;98783.22;;;22.07;51.62
54900;BME280;40801;41.924;25.562;2023-08-07T03:17:57;98782.44;;;22.03;52.15
54900;BME280;40801;41.924;25.562;2023-08-07T03:20:22;98782.84;;;22.01;52.07
54900;BME280;40801;41.924;25.562;2023-08-07T03:22:47;98782.03;;;21.97;52.26
54900;BME280;40801;41.924;25.562;2023-08-07T03:25:13;98783.63;;;21.87;52.66
54900;BME280;40801;41.924;25.562;2023-08-07T03:27:38;98788.34;;;21.80;53.07
54900;BME280;40801;41.924;25.562;2023-08-07T03:30:04;98792.28;;;21.79;53.02
54900;BME280;40801;41.924;25.562;2023-08-07T03:32:30;98783.25;;;21.82;52.84
54900;BME280;40801;41.924;25.562;2023-08-07T03:34:55;98797.75;;;21.86;52.65
54900;BME280;40801;41.924;25.562;2023-08-07T03:37:20;98794.25;;;21.75;52.98
54900;BME280;40801;41.924;25.562;2023-08-07T03:39:46;98795.00;;;21.64;52.97
54900;BME280;40801;41.924;25.562;2023-08-07T03:42:13;98795.44;;;21.70;53.14
54900;BME280;40801;41.924;25.562;2023-08-07T03:44:39;98799.72;;;21.64;53.19
54900;BME280;40801;41.924;25.562;2023-08-07T03:47:05;98802.47;;;21.75;52.83
54900;BME280;40801;41.924;25.562;2023-08-07T03:49:30;98803.25;;;21.72;53.07
54900;BME280;40801;41.924;25.562;2023-08-07T03:51:56;98810.69;;;21.64;53.42
54900;BME280;40801;41.924;25.562;2023-08-07T03:54:24;98799.72;;;21.71;53.18
54900;BME280;40801;41.924;25.562;2023-08-07T03:56:49;98806.78;;;21.69;53.44
54900;BME280;40801;41.924;25.562;2023-08-07T03:59:16;98812.66;;;21.74;53.32
54900;BME280;40801;41.924;25.562;2023-08-07T04:01:42;98814.25;;;21.72;53.51
54900;BME280;40801;41.924;25.562;2023-08-07T04:04:08;98812.66;;;21.78;53.16
54900;BME280;40801;41.924;25.562;2023-08-07T04:06:33;98805.22;;;21.75;53.43
54900;BME280;40801;41.924;25.562;2023-08-07T04:08:59;98816.97;;;21.82;53.33
54900;BME280;40801;41.924;25.562;2023-08-07T04:11:24;98818.16;;;21.74;53.41
54900;BME280;40801;41.924;25.562;2023-08-07T04:13:50;98819.72;;;21.82;53.22
54900;BME280;40801;41.924;25.562;2023-08-07T04:16:15;98814.22;;;21.82;53.06
54900;BME280;40801;41.924;25.562;2023-08-07T04:18:41;98813.81;;;21.87;53.04
54900;BME280;40801;41.924;25.562;2023-08-07T04:21:07;98816.16;;;21.89;52.73
54900;BME280;40801;41.924;25.562;2023-08-07T04:23:33;98820.06;;;21.95;52.47
54900;BME280;40801;41.924;25.562;2023-08-07T04:25:59;98825.22;;;22.04;52.03
54900;BME280;40801;41.924;25.562;2023-08-07T04:28:24;98823.59;;;22.17;51.84
54900;BME280;40801;41.924;25.562;2023-08-07T04:30:50;98825.56;;;22.23;51.63
54900;BME280;40801;41.924;25.562;2023-08-07T04:33:16;98815.75;;;22.33;51.52
54900;BME280;40801;41.924;25.562;2023-08-07T04:35:42;98811.41;;;22.39;51.44
54900;BME280;40801;41.924;25.562;2023-08-07T04:38:07;98821.56;;;22.49;50.80
54900;BME280;40801;41.924;25.562;2023-08-07T04:40:33;98827.81;;;22.61;50.92
54900;BME280;40801;41.924;25.562;2023-08-07T04:42:58;98826.63;;;22.65;50.33
54900;BME280;40801;41.924;25.562;2023-08-07T04:45:24;98837.16;;;22.77;50.37
54900;BME280;40801;41.924;25.562;2023-08-07T04:47:49;98837.13;;;22.95;49.75
54900;BME280;40801;41.924;25.562;2023-08-07T04:50:14;98836.25;;;23.05;49.60
54900;BME280;40801;41.924;25.562;2023-08-07T04:52:40;98844.13;;;23.07;49.52
54900;BME280;40801;41.924;25.562;2023-08-07T04:55:05;98843.34;;;23.03;49.07
54900;BME280;40801;41.924;25.562;2023-08-07T04:57:31;98848.00;;;23.13;48.49
54900;BME280;40801;41.924;25.562;2023-08-07T04:59:57;98849.47;;;23.32;48.17
54900;BME280;40801;41.924;25.562;2023-08-07T05:02:22;98855.34;;;23.34;48.18
54900;BME280;40801;41.924;25.562;2023-08-07T05:04:47;98852.94;;;23.39;47.99
54900;BME280;40801;41.924;25.562;2023-08-07T05:07:13;98855.22;;;23.55;48.20
54900;BME280;40801;41.924;25.562;2023-08-07T05:09:38;98861.88;;;23.61;47.88
54900;BME280;40801;41.924;25.562;2023-08-07T05:12:05;98864.16;;;23.70;46.88
54900;BME280;40801;41.924;25.562;2023-08-07T05:14:32;98861.41;;;23.70;46.99
54900;BME280;40801;41.924;25.562;2023-08-07T05:16:58;98872.34;;;23.81;46.90
54900;BME280;40801;41.924;25.562;2023-08-07T05:19:24;98869.91;;;23.90;46.70
54900;BME280;40801;41.924;25.562;2023-08-07T05:21:50;98871.53;;;23.84;47.02
54900;BME280;40801;41.924;25.562;2023-08-07T05:24:19;98877.38;;;23.93;47.11
54900;BME280;40801;41.924;25.562;2023-08-07T05:26:45;98875.81;;;23.92;46.58
54900;BME280;40801;41.924;25.562;2023-08-07T05:29:11;98878.09;;;23.97;46.85
54900;BME280;40801;41.924;25.562;2023-08-07T05:31:36;98874.09;;;24.08;46.07
54900;BME280;40801;41.924;25.562;2023-08-07T05:34:02;98880.31;;;24.16;45.83
54900;BME280;40801;41.924;25.562;2023-08-07T05:36:28;98875.53;;;24.20;45.86
54900;BME280;40801;41.924;25.562;2023-08-07T05:38:55;98895.16;;;24.26;45.37
54900;BME280;40801;41.924;25.562;2023-08-07T05:41:20;98884.19;;;24.22;45.34
54900;BME280;40801;41.924;25.562;2023-08-07T05:43:46;98895.09;;;24.36;45.32
54900;BME280;40801;41.924;25.562;2023-08-07T05:46:11;98895.31;;;24.53;45.26
54900;BME280;40801;41.924;25.562;2023-08-07T05:48:36;98890.72;;;24.43;43.88
54900;BME280;40801;41.924;25.562;2023-08-07T05:51:02;98904.66;;;24.66;43.84
54900;BME280;40801;41.924;25.562;2023-08-07T05:53:27;98902.19;;;24.75;43.67
54900;BME280;40801;41.924;25.562;2023-08-07T05:55:52;98901.06;;;24.69;43.97
54900;BME280;40801;41.924;25.562;2023-08-07T05:58:18;98905.66;;;24.79;43.70
54900;BME280;40801;41.924;25.562;2023-08-07T06:00:44;98900.88;;;24.83;43.74
54900;BME280;40801;41.924;25.562;2023-08-07T06:03:09;98907.00;;;25.01;43.70
54900;BME280;40801;41.924;25.562;2023-08-07T06:05:35;98904.09;;;25.12;43.24
54900;BME280;40801;41.924;25.562;2023-08-07T06:08:00;98902.50;;;25.15;43.05
54900;BME280;40801;41.924;25.562;2023-08-07T06:10:26;98910.34;;;25.20;42.96
54900;BME280;40801;41.924;25.562;2023-08-07T06:12:51;98907.59;;;25.47;42.64
54900;BME280;40801;41.924;25.562;2023-08-07T06:15:17;98908.28;;;25.54;42.32
54900;BME280;40801;41.924;25.562;2023-08-07T06:17:42;98904.75;;;25.81;42.37
54900;BME280;40801;41.924;25.562;2023-08-07T06:20:08;98900.91;;;25.98;41.92
54900;BME280;40801;41.924;25.562;2023-08-07T06:22:35;98902.47;;;26.22;41.36
54900;BME280;40801;41.924;25.562;2023-08-07T06:25:00;98908.66;;;26.30;40.80
54900;BME280;40801;41.924;25.562;2023-08-07T06:27:26;98901.91;;;26.35;40.51
54900;BME280;40801;41.924;25.562;2023-08-07T06:29:51;98908.16;;;26.59;39.61
54900;BME280;40801;41.924;25.562;2023-08-07T06:32:17;98911.25;;;26.64;40.08
54900;BME280;40801;41.924;25.562;2023-08-07T06:34:43;98913.38;;;26.76;39.56
54900;BME280;40801;41.924;25.562;2023-08-07T06:37:09;98906.47;;;26.84;39.79
54900;BME280;40801;41.924;25.562;2023-08-07T06:39:34;98898.81;;;27.12;39.25
54900;BME280;40801;41.924;25.562;2023-08-07T06:42:00;98900.31;;;27.16;38.52
54900;BME280;40801;41.924;25.562;2023-08-07T06:44:26;98911.13;;;27.47;39.32
54900;BME280;40801;41.924;25.562;2023-08-07T06:46:51;98912.53;;;27.55;37.70
54900;BME280;40801;41.924;25.562;2023-08-07T06:52:01;98907.63;;;27.95;36.86
54900;BME280;40801;41.924;25.562;2023-08-07T06:54:27;98907.22;;;28.13;37.39
54900;BME280;40801;41.924;25.562;2023-08-07T06:56:53;98913.38;;;28.37;36.30
54900;BME280;40801;41.924;25.562;2023-08-07T06:59:18;98904.53;;;28.26;35.90
54900;BME280;40801;41.924;25.562;2023-08-07T07:01:43;98904.91;;;28.57;36.69
54900;BME280;40801;41.924;25.562;2023-08-07T07:04:09;98910.66;;;28.79;35.14
54900;BME280;40801;41.924;25.562;2023-08-07T07:06:37;98919.06;;;29.04;34.28
54900;BME280;40801;41.924;25.562;2023-08-07T07:09:03;98922.97;;;29.07;33.80
54900;BME280;40801;41.924;25.562;2023-08-07T07:11:28;98916.75;;;29.15;33.82
54900;BME280;40801;41.924;25.562;2023-08-07T07:13:53;98916.91;;;29.24;33.87
54900;BME280;40801;41.924;25.562;2023-08-07T07:16:19;98918.56;;;29.22;33.43
54900;BME280;40801;41.924;25.562;2023-08-07T07:18:50;98918.09;;;29.11;33.45
54900;BME280;40801;41.924;25.562;2023-08-07T07:21:15;98924.94;;;28.93;33.67
54900;BME280;40801;41.924;25.562;2023-08-07T07:23:41;98921.63;;;28.98;33.49
54900;BME280;40801;41.924;25.562;2023-08-07T07:26:06;98919.06;;;28.30;33.39
54900;BME280;40801;41.924;25.562;2023-08-07T07:28:31;98931.56;;;28.38;32.85
54900;BME280;40801;41.924;25.562;2023-08-07T07:30:57;98935.84;;;28.55;33.29
54900;BME280;40801;41.924;25.562;2023-08-07T07:33:22;98939.81;;;28.71;33.39
54900;BME280;40801;41.924;25.562;2023-08-07T07:35:48;98921.53;;;28.57;33.21
54900;BME280;40801;41.924;25.562;2023-08-07T07:38:14;98934.56;;;28.89;33.03
54900;BME280;40801;41.924;25.562;2023-08-07T07:40:40;98931.69;;;29.21;33.23
54900;BME280;40801;41.924;25.562;2023-08-07T07:43:06;98931.97;;;29.65;32.07
54900;BME280;40801;41.924;25.562;2023-08-07T07:45:32;98927.16;;;30.04;31.99
54900;BME280;40801;41.924;25.562;2023-08-07T07:48:01;98923.53;;;30.41;31.92
54900;BME280;40801;41.924;25.562;2023-08-07T07:50:26;98916.63;;;30.33;31.50
54900;BME280;40801;41.924;25.562;2023-08-07T07:52:52;98926.66;;;30.43;30.97
54900;BME280;40801;41.924;25.562;2023-08-07T07:55:17;98921.53;;;30.98;30.98
54900;BME280;40801;41.924;25.562;2023-08-07T07:57:43;98917.41;;;31.25;30.31
54900;BME280;40801;41.924;25.562;2023-08-07T08:00:08;98924.81;;;31.90;29.61
54900;BME280;40801;41.924;25.562;2023-08-07T08:02:36;98927.13;;;31.91;28.55
54900;BME280;40801;41.924;25.562;2023-08-07T08:05:02;98925.94;;;31.61;27.83
54900;BME280;40801;41.924;25.562;2023-08-07T08:07:27;98911.66;;;32.09;28.61
54900;BME280;40801;41.924;25.562;2023-08-07T08:09:52;98921.16;;;32.11;27.49
54900;BME280;40801;41.924;25.562;2023-08-07T08:12:18;98919.34;;;32.26;27.09
54900;BME280;40801;41.924;25.562;2023-08-07T08:14:43;98910.34;;;32.31;27.03
54900;BME280;40801;41.924;25.562;2023-08-07T08:17:09;98910.06;;;32.48;27.99
54900;BME280;40801;41.924;25.562;2023-08-07T08:19:34;98918.72;;;33.05;27.72
54900;BME280;40801;41.924;25.562;2023-08-07T08:22:00;98916.28;;;32.79;26.24
54900;BME280;40801;41.924;25.562;2023-08-07T08:24:26;98919.78;;;33.16;26.22
54900;BME280;40801;41.924;25.562;2023-08-07T08:27:10;98911.06;;;33.33;24.98
54900;BME280;40801;41.924;25.562;2023-08-07T08:29:35;98915.50;;;33.48;25.33
54900;BME280;40801;41.924;25.562;2023-08-07T08:32:01;98909.16;;;33.81;25.84
54900;BME280;40801;41.924;25.562;2023-08-07T08:34:27;98920.94;;;33.94;25.93
54900;BME280;40801;41.924;25.562;2023-08-07T08:36:52;98908.25;;;34.08;25.28
54900;BME280;40801;41.924;25.562;2023-08-07T08:39:18;98907.75;;;34.42;25.91
54900;BME280;40801;41.924;25.562;2023-08-07T08:41:46;98908.50;;;34.96;24.30
54900;BME280;40801;41.924;25.562;2023-08-07T08:44:13;98910.75;;;34.68;24.52
54900;BME280;40801;41.924;25.562;2023-08-07T08:46:41;98918.59;;;34.64;24.23
54900;BME280;40801;41.924;25.562;2023-08-07T08:49:08;98920.00;;;34.84;24.23
54900;BME280;40801;41.924;25.562;2023-08-07T08:51:37;98922.97;;;34.80;24.02
54900;BME280;40801;41.924;25.562;2023-08-07T08:54:03;98906.00;;;34.98;23.52
54900;BME280;40801;41.924;25.562;2023-08-07T08:56:29;98900.13;;;35.11;23.52
54900;BME280;40801;41.924;25.562;2023-08-07T08:58:55;98911.03;;;35.38;23.23
54900;BME280;40801;41.924;25.562;2023-08-07T09:01:21;98907.28;;;35.42;23.00
54900;BME280;40801;41.924;25.562;2023-08-07T09:03:47;98906.72;;;35.73;23.28
54900;BME280;40801;41.924;25.562;2023-08-07T09:06:13;98897.19;;;35.99;22.77
54900;BME280;40801;41.924;25.562;2023-08-07T09:08:43;98898.47;;;36.19;22.31
54900;BME280;40801;41.924;25.562;2023-08-07T09:11:10;98890.19;;;36.30;22.01
54900;BME280;40801;41.924;25.562;2023-08-07T09:13:37;98890.66;;;35.88;22.65
54900;BME280;40801;41.924;25.562;2023-08-07T09:16:04;98893.84;;;36.36;22.13
54900;BME280;40801;41.924;25.562;2023-08-07T09:18:32;98895.00;;;36.09;21.13
54900;BME280;40801;41.924;25.562;2023-08-07T09:20:59;98887.50;;;36.21;21.52
54900;BME280;40801;41.924;25.562;2023-08-07T09:23:25;98885.22;;;36.66;21.15
54900;BME280;40801;41.924;25.562;2023-08-07T09:26:04;98885.00;;;36.43;20.83
54900;BME280;40801;41.924;25.562;2023-08-07T09:28:31;98886.41;;;36.33;21.19
54900;BME280;40801;41.924;25.562;2023-08-07T09:31:00;98878.63;;;36.95;20.82
54900;BME280;40801;41.924;25.562;2023-08-07T09:33:28;98880.16;;;37.21;21.39
54900;BME280;40801;41.924;25.562;2023-08-07T09:36:00;98892.34;;;37.76;20.06
54900;BME280;40801;41.924;25.562;2023-08-07T09:38:29;98884.53;;;36.97;20.72
54900;BME280;40801;41.924;25.562;2023-08-07T09:41:00;98882.09;;;37.36;19.30
54900;BME280;40801;41.924;25.562;2023-08-07T09:43:26;98882.13;;;37.41;19.55
54900;BME280;40801;41.924;25.562;2023-08-07T09:45:52;98882.66;;;37.14;20.31
54900;BME280;40801;41.924;25.562;2023-08-07T09:48:24;98882.47;;;37.55;19.25
54900;BME280;40801;41.924;25.562;2023-08-07T09:50:53;98871.47;;;37.57;19.31
54900;BME280;40801;41.924;25.562;2023-08-07T09:53:25;98883.53;;;38.00;19.15
54900;BME280;40801;41.924;25.562;2023-08-07T09:55:54;98879.75;;;38.14;18.60
54900;BME280;40801;41.924;25.562;2023-08-07T09:58:20;98881.22;;;38.58;18.81
54900;BME280;40801;41.924;25.562;2023-08-07T10:00:47;98884.97;;;38.32;18.84
54900;BME280;40801;41.924;25.562;2023-08-07T10:03:13;98868.09;;;38.43;18.86
54900;BME280;40801;41.924;25.562;2023-08-07T10:05:39;98869.94;;;38.52;18.73
54900;BME280;40801;41.924;25.562;2023-08-07T10:08:05;98869.13;;;38.40;18.86
54900;BME280;40801;41.924;25.562;2023-08-07T10:10:32;98875.56;;;38.52;19.38
54900;BME280;40801;41.924;25.562;2023-08-07T10:13:00;98863.25;;;38.50;18.44
54900;BME280;40801;41.924;25.562;2023-08-07T10:15:26;98865.41;;;38.94;19.55
54900;BME280;40801;41.924;25.562;2023-08-07T10:17:52;98867.97;;;38.97;19.03
54900;BME280;40801;41.924;25.562;2023-08-07T10:20:17;98847.97;;;38.95;18.76
54900;BME280;40801;41.924;25.562;2023-08-07T10:22:44;98857.22;;;39.18;18.69
54900;BME280;40801;41.924;25.562;2023-08-07T10:25:10;98839.03;;;39.08;17.99
54900;BME280;40801;41.924;25.562;2023-08-07T10:27:38;98846.91;;;38.70;18.92
54900;BME280;40801;41.924;25.562;2023-08-07T10:30:09;98853.59;;;39.46;17.35
54900;BME280;40801;41.924;25.562;2023-08-07T10:32:37;98837.84;;;40.01;17.51
54900;BME280;40801;41.924;25.562;2023-08-07T10:35:04;98844.81;;;39.83;17.69
54900;BME280;40801;41.924;25.562;2023-08-07T10:37:43;98839.47;;;39.74;16.78
54900;BME280;40801;41.924;25.562;2023-08-07T10:40:10;98834.28;;;39.83;18.10
54900;BME280;40801;41.924;25.562;2023-08-07T10:42:59;98848.72;;;39.69;17.38
54900;BME280;40801;41.924;25.562;2023-08-07T10:45:27;98832.66;;;40.10;17.64
54900;BME280;40801;41.924;25.562;2023-08-07T10:48:02;98831.34;;;40.17;17.95
54900;BME280;40801;41.924;25.562;2023-08-07T10:50:29;98832.16;;;40.06;18.11
54900;BME280;40801;41.924;25.562;2023-08-07T10:52:55;98831.47;;;40.88;17.66
54900;BME280;40801;41.924;25.562;2023-08-07T10:55:20;98824.84;;;40.33;17.60
54900;BME280;40801;41.924;25.562;2023-08-07T10:57:47;98827.38;;;40.42;17.77
54900;BME280;40801;41.924;25.562;2023-08-07T11:00:12;98822.75;;;40.86;17.23
54900;BME280;40801;41.924;25.562;2023-08-07T11:02:41;98815.09;;;41.05;16.81
54900;BME280;40801;41.924;25.562;2023-08-07T11:05:08;98814.00;;;41.44;17.00
54900;BME280;40801;41.924;25.562;2023-08-07T11:07:53;98816.22;;;41.27;17.37
54900;BME280;40801;41.924;25.562;2023-08-07T11:10:19;98812.63;;;41.51;17.35
54900;BME280;40801;41.924;25.562;2023-08-07T11:12:44;98810.34;;;41.49;17.06
54900;BME280;40801;41.924;25.562;2023-08-07T11:15:12;98804.53;;;41.85;17.19
54900;BME280;40801;41.924;25.562;2023-08-07T11:17:38;98795.97;;;41.90;16.89
54900;BME280;40801;41.924;25.562;2023-08-07T11:20:06;98794.50;;;41.35;17.33
54900;BME280;40801;41.924;25.562;2023-08-07T11:22:32;98796.75;;;41.17;17.12
54900;BME280;40801;41.924;25.562;2023-08-07T11:24:57;98789.69;;;41.30;17.29
54900;BME280;40801;41.924;25.562;2023-08-07T11:27:23;98783.06;;;41.22;17.06
54900;BME280;40801;41.924;25.562;2023-08-07T11:29:48;98787.22;;;41.88;16.39
54900;BME280;40801;41.924;25.562;2023-08-07T11:32:14;98784.16;;;41.67;16.82
54900;BME280;40801;41.924;25.562;2023-08-07T11:34:40;98786.69;;;41.90;17.29
54900;BME280;40801;41.924;25.562;2023-08-07T11:37:05;98782.19;;;42.00;16.29
54900;BME280;40801;41.924;25.562;2023-08-07T11:39:31;98784.66;;;42.09;16.33
54900;BME280;40801;41.924;25.562;2023-08-07T11:41:56;98778.59;;;42.18;16.28
54900;BME280;40801;41.924;25.562;2023-08-07T11:44:22;98781.59;;;42.07;16.37
54900;BME280;40801;41.924;25.562;2023-08-07T11:46:50;98785.84;;;41.76;16.81
54900;BME280;40801;41.924;25.562;2023-08-07T11:49:15;98780.09;;;42.06;16.44
54900;BME280;40801;41.924;25.562;2023-08-07T11:51:41;98778.25;;;42.09;16.32
54900;BME280;40801;41.924;25.562;2023-08-07T11:54:06;98771.75;;;41.89;16.98
54900;BME280;40801;41.924;25.562;2023-08-07T11:56:32;98770.63;;;41.55;17.12
54900;BME280;40801;41.924;25.562;2023-08-07T11:58:58;98765.72;;;41.36;17.80
54900;BME280;40801;41.924;25.562;2023-08-07T12:01:25;98763.25;;;41.89;17.57
54900;BME280;40801;41.924;25.562;2023-08-07T12:06:33;98763.97;;;41.95;17.08
54900;BME280;40801;41.924;25.562;2023-08-07T12:09:02;98755.66;;;42.22;17.10
54900;BME280;40801;41.924;25.562;2023-08-07T12:11:29;98757.59;;;42.46;16.64
54900;BME280;40801;41.924;25.562;2023-08-07T12:13:54;98757.06;;;42.79;16.51
54900;BME280;40801;41.924;25.562;2023-08-07T12:16:20;98766.56;;;43.53;15.70
54900;BME280;40801;41.924;25.562;2023-08-07T12:18:46;98761.09;;;43.55;14.94
54900;BME280;40801;41.924;25.562;2023-08-07T12:21:14;98761.53;;;43.59;15.26
54900;BME280;40801;41.924;25.562;2023-08-07T12:23:40;98765.03;;;43.52;15.54
54900;BME280;40801;41.924;25.562;2023-08-07T12:26:06;98753.34;;;43.16;15.59
54900;BME280;40801;41.924;25.562;2023-08-07T12:28:33;98746.69;;;43.14;15.49
54900;BME280;40801;41.924;25.562;2023-08-07T12:30:58;98755.72;;;42.99;15.52
54900;BME280;40801;41.924;25.562;2023-08-07T12:33:24;98753.44;;;42.65;15.69
54900;BME280;40801;41.924;25.562;2023-08-07T12:35:49;98747.81;;;42.47;15.54
54900;BME280;40801;41.924;25.562;2023-08-07T12:38:15;98743.25;;;42.25;16.38
54900;BME280;40801;41.924;25.562;2023-08-07T12:40:41;98746.13;;;42.38;16.59
54900;BME280;40801;41.924;25.562;2023-08-07T12:43:06;98746.94;;;42.84;15.61
54900;BME280;40801;41.924;25.562;2023-08-07T12:45:33;98747.44;;;42.69;16.05
54900;BME280;40801;41.924;25.562;2023-08-07T12:47:59;98735.97;;;42.93;15.65
54900;BME280;40801;41.924;25.562;2023-08-07T12:50:25;98739.78;;;42.96;16.05